Alexander, NC

12:40 PM EST on February 27, 2015 (GMT -0500)
Lone Pine Road | Change Station
CLOSE
Current Station
Personal Weather Station
Location: Alexander, NC
Elevation: 2126 ft
Nearby Weather Stations

Elev 2126 ft 35.74 °N, 82.64 °W | Updated 5 minutes ago

Partly Cloudy
Partly Cloudy
30.7 °F
Feels Like 22 °F
N
9.9
Wind Variable Wind from NNE

Today
High -- | Low -- °F
--% Chance of Precip.
Yesterday
High -- | Low -- °F
Precip. -- in
7:03 AM 6:23 PM
Waxing Gibbous, 70% visible
Pressure 30.38 in
Visibility 10.0 miles
Clouds Clear
Windchill 22 °F
Dew Point 22 °F
Humidity 70%
Rainfall 0.00 in
Snow Depth Not available.
UV 6 out of 12
Pollen 4.80 out of 12
Air Quality Not available.
Flu Activity Not available.
METAR KAVL 271654Z 35008KT 10SM CLR 01/M07 A3035 RMK AO2 SLP288 T00111067

More Conditions Fewer Conditions

Pressure 30.38 in
Visibility 10.0 miles
Clouds Clear
Windchill 22 °F
Dew Point 22 °F
Humidity 70%
Rainfall 0.00 in
Snow Depth Not available.
UV 6 out of 12
Pollen 4.80 out of 12
Air Quality Not available.
Flu Activity Not available.
METAR KAVL 271654Z 35008KT 10SM CLR 01/M07 A3035 RMK AO2 SLP288 T00111067

More Conditions Fewer Conditions

10-Day Weather Forecast

Almanac

Astronomy

Feb. 27, 2015 Rise Set
Actual Time
Civil Twilight
Nautical Twilight
Astronomical Twilight
Moon
Length of Visible Light
Length of Day
Tomorrow will be .
, % of the Moon is Illuminated

Today's Extremes

State Highs State Lows

Community

WunderPhotos

Upload Photos

1,800,758 photos uploaded!

WunderBlogs® & News

Nearby

Air Quality

  Air Quality AQ Index Pollutant
Not available.

Snow Depth

Station Depth Elevation

Earthquake Activity

City Distance Mag. Time & Date
Minimum magnitude displayed is 2.5.

Coastal Water Temperatures

Place Temperature

Nearby Weather Stations